sensor_id;sensor_type;location;lat;lon;timestamp;P1;durP1;ratioP1;P2;durP2;ratioP2
19456;SDS011;9867;48.094;11.478;2023-04-24T00:00:49;2.00;;;1.80;;
19456;SDS011;9867;48.094;11.478;2023-04-24T00:03:17;1.60;;;1.50;;
19456;SDS011;9867;48.094;11.478;2023-04-24T00:05:49;1.93;;;1.80;;
19456;SDS011;9867;48.094;11.478;2023-04-24T00:08:17;1.50;;;1.40;;
19456;SDS011;9867;48.094;11.478;2023-04-24T00:10:46;2.37;;;1.50;;
19456;SDS011;9867;48.094;11.478;2023-04-24T00:13:14;1.70;;;1.50;;
19456;SDS011;9867;48.094;11.478;2023-04-24T00:15:41;1.53;;;1.40;;
19456;SDS011;9867;48.094;11.478;2023-04-24T00:18:09;1.37;;;1.27;;
19456;SDS011;9867;48.094;11.478;2023-04-24T00:20:40;1.73;;;1.63;;
19456;SDS011;9867;48.094;11.478;2023-04-24T00:23:11;1.13;;;1.13;;
19456;SDS011;9867;48.094;11.478;2023-04-24T00:25:39;1.43;;;1.33;;
19456;SDS011;9867;48.094;11.478;2023-04-24T00:28:07;1.40;;;1.30;;
19456;SDS011;9867;48.094;11.478;2023-04-24T00:30:35;1.70;;;1.60;;
19456;SDS011;9867;48.094;11.478;2023-04-24T00:33:03;1.40;;;1.23;;
19456;SDS011;9867;48.094;11.478;2023-04-24T00:35:31;1.20;;;1.10;;
19456;SDS011;9867;48.094;11.478;2023-04-24T00:37:59;2.90;;;1.40;;
19456;SDS011;9867;48.094;11.478;2023-04-24T00:40:28;2.40;;;1.60;;
19456;SDS011;9867;48.094;11.478;2023-04-24T00:42:57;2.47;;;1.40;;
19456;SDS011;9867;48.094;11.478;2023-04-24T00:45:25;1.30;;;1.20;;
19456;SDS011;9867;48.094;11.478;2023-04-24T00:47:53;1.40;;;1.40;;
19456;SDS011;9867;48.094;11.478;2023-04-24T00:50:21;2.13;;;1.30;;
19456;SDS011;9867;48.094;11.478;2023-04-24T00:52:50;1.20;;;1.10;;
19456;SDS011;9867;48.094;11.478;2023-04-24T00:55:19;1.20;;;1.20;;
19456;SDS011;9867;48.094;11.478;2023-04-24T00:57:48;1.30;;;1.03;;
19456;SDS011;9867;48.094;11.478;2023-04-24T01:00:17;1.00;;;1.00;;
19456;SDS011;9867;48.094;11.478;2023-04-24T01:02:45;1.30;;;1.13;;
19456;SDS011;9867;48.094;11.478;2023-04-24T01:05:15;1.17;;;1.17;;
19456;SDS011;9867;48.094;11.478;2023-04-24T01:07:44;1.40;;;1.30;;
19456;SDS011;9867;48.094;11.478;2023-04-24T01:10:15;1.20;;;1.20;;
19456;SDS011;9867;48.094;11.478;2023-04-24T01:12:45;2.17;;;1.10;;
19456;SDS011;9867;48.094;11.478;2023-04-24T01:15:14;1.57;;;0.93;;
19456;SDS011;9867;48.094;11.478;2023-04-24T01:17:42;1.00;;;1.00;;
19456;SDS011;9867;48.094;11.478;2023-04-24T01:20:13;1.80;;;1.07;;
19456;SDS011;9867;48.094;11.478;2023-04-24T01:22:43;0.80;;;0.80;;
19456;SDS011;9867;48.094;11.478;2023-04-24T01:25:11;1.40;;;1.30;;
19456;SDS011;9867;48.094;11.478;2023-04-24T01:27:39;0.90;;;0.90;;
19456;SDS011;9867;48.094;11.478;2023-04-24T01:30:07;1.17;;;1.17;;
19456;SDS011;9867;48.094;11.478;2023-04-24T01:32:36;0.90;;;0.90;;
19456;SDS011;9867;48.094;11.478;2023-04-24T01:35:05;0.90;;;0.90;;
19456;SDS011;9867;48.094;11.478;2023-04-24T01:37:34;2.23;;;0.87;;
19456;SDS011;9867;48.094;11.478;2023-04-24T01:40:05;1.20;;;0.83;;
19456;SDS011;9867;48.094;11.478;2023-04-24T01:42:34;1.27;;;1.17;;
19456;SDS011;9867;48.094;11.478;2023-04-24T01:45:03;2.00;;;1.00;;
19456;SDS011;9867;48.094;11.478;2023-04-24T01:47:32;1.27;;;1.17;;
19456;SDS011;9867;48.094;11.478;2023-04-24T01:50:00;0.83;;;0.83;;
19456;SDS011;9867;48.094;11.478;2023-04-24T01:52:28;1.23;;;1.17;;
19456;SDS011;9867;48.094;11.478;2023-04-24T01:54:59;1.13;;;1.03;;
19456;SDS011;9867;48.094;11.478;2023-04-24T01:57:28;0.90;;;0.90;;
19456;SDS011;9867;48.094;11.478;2023-04-24T01:59:56;0.90;;;0.90;;
19456;SDS011;9867;48.094;11.478;2023-04-24T02:02:24;1.93;;;0.90;;
19456;SDS011;9867;48.094;11.478;2023-04-24T02:04:55;0.80;;;0.80;;
19456;SDS011;9867;48.094;11.478;2023-04-24T02:07:24;0.77;;;0.77;;
19456;SDS011;9867;48.094;11.478;2023-04-24T02:09:51;1.13;;;0.90;;
19456;SDS011;9867;48.094;11.478;2023-04-24T02:12:20;1.03;;;0.90;;
19456;SDS011;9867;48.094;11.478;2023-04-24T02:14:51;1.17;;;1.07;;
19456;SDS011;9867;48.094;11.478;2023-04-24T02:17:19;0.93;;;0.80;;
19456;SDS011;9867;48.094;11.478;2023-04-24T02:19:47;1.10;;;1.10;;
19456;SDS011;9867;48.094;11.478;2023-04-24T02:22:15;0.90;;;0.90;;
19456;SDS011;9867;48.094;11.478;2023-04-24T02:24:43;1.30;;;0.90;;
19456;SDS011;9867;48.094;11.478;2023-04-24T02:27:14;1.27;;;1.17;;
19456;SDS011;9867;48.094;11.478;2023-04-24T02:29:42;2.70;;;0.90;;
19456;SDS011;9867;48.094;11.478;2023-04-24T02:32:14;0.90;;;0.90;;
19456;SDS011;9867;48.094;11.478;2023-04-24T02:34:42;2.07;;;1.00;;
19456;SDS011;9867;48.094;11.478;2023-04-24T02:37:11;0.90;;;0.90;;
19456;SDS011;9867;48.094;11.478;2023-04-24T02:39:39;0.73;;;0.73;;
19456;SDS011;9867;48.094;11.478;2023-04-24T02:42:07;1.03;;;0.97;;
19456;SDS011;9867;48.094;11.478;2023-04-24T02:44:35;0.77;;;0.77;;
19456;SDS011;9867;48.094;11.478;2023-04-24T02:47:03;0.80;;;0.80;;
19456;SDS011;9867;48.094;11.478;2023-04-24T02:49:32;1.60;;;1.30;;
19456;SDS011;9867;48.094;11.478;2023-04-24T02:52:00;1.00;;;1.00;;
19456;SDS011;9867;48.094;11.478;2023-04-24T02:54:30;1.10;;;1.10;;
19456;SDS011;9867;48.094;11.478;2023-04-24T02:56:58;0.90;;;0.90;;
19456;SDS011;9867;48.094;11.478;2023-04-24T02:59:27;0.97;;;0.97;;
19456;SDS011;9867;48.094;11.478;2023-04-24T03:01:55;1.00;;;1.00;;
19456;SDS011;9867;48.094;11.478;2023-04-24T03:04:23;1.43;;;1.00;;
19456;SDS011;9867;48.094;11.478;2023-04-24T03:06:53;0.83;;;0.80;;
19456;SDS011;9867;48.094;11.478;2023-04-24T03:09:21;1.00;;;1.00;;
19456;SDS011;9867;48.094;11.478;2023-04-24T03:11:49;1.23;;;0.97;;
19456;SDS011;9867;48.094;11.478;2023-04-24T03:14:17;1.17;;;1.00;;
19456;SDS011;9867;48.094;11.478;2023-04-24T03:16:45;1.27;;;1.20;;
19456;SDS011;9867;48.094;11.478;2023-04-24T03:19:13;1.00;;;1.00;;
19456;SDS011;9867;48.094;11.478;2023-04-24T03:21:54;1.07;;;1.07;;
19456;SDS011;9867;48.094;11.478;2023-04-24T03:24:22;0.93;;;0.93;;
19456;SDS011;9867;48.094;11.478;2023-04-24T03:26:50;1.40;;;1.13;;
19456;SDS011;9867;48.094;11.478;2023-04-24T03:29:38;1.13;;;1.00;;
19456;SDS011;9867;48.094;11.478;2023-04-24T03:32:07;1.53;;;1.03;;
19456;SDS011;9867;48.094;11.478;2023-04-24T03:34:36;1.40;;;1.30;;
19456;SDS011;9867;48.094;11.478;2023-04-24T03:37:07;2.20;;;1.20;;
19456;SDS011;9867;48.094;11.478;2023-04-24T03:39:39;1.13;;;1.13;;
19456;SDS011;9867;48.094;11.478;2023-04-24T03:42:08;1.67;;;1.30;;
19456;SDS011;9867;48.094;11.478;2023-04-24T03:44:46;1.60;;;1.30;;
19456;SDS011;9867;48.094;11.478;2023-04-24T03:47:14;1.37;;;1.30;;
19456;SDS011;9867;48.094;11.478;2023-04-24T03:49:43;1.77;;;1.53;;
19456;SDS011;9867;48.094;11.478;2023-04-24T03:52:12;1.37;;;1.30;;
19456;SDS011;9867;48.094;11.478;2023-04-24T03:54:40;1.20;;;1.20;;
19456;SDS011;9867;48.094;11.478;2023-04-24T03:57:10;1.50;;;1.40;;
19456;SDS011;9867;48.094;11.478;2023-04-24T03:59:48;1.43;;;1.30;;
19456;SDS011;9867;48.094;11.478;2023-04-24T04:02:17;1.63;;;1.37;;
19456;SDS011;9867;48.094;11.478;2023-04-24T04:04:46;1.53;;;1.10;;
19456;SDS011;9867;48.094;11.478;2023-04-24T04:07:15;1.30;;;1.20;;
19456;SDS011;9867;48.094;11.478;2023-04-24T04:09:43;2.00;;;1.80;;
19456;SDS011;9867;48.094;11.478;2023-04-24T04:12:14;2.97;;;2.77;;
19456;SDS011;9867;48.094;11.478;2023-04-24T04:14:42;2.97;;;2.77;;
19456;SDS011;9867;48.094;11.478;2023-04-24T04:17:10;1.90;;;1.80;;
19456;SDS011;9867;48.094;11.478;2023-04-24T04:19:38;1.70;;;1.60;;
19456;SDS011;9867;48.094;11.478;2023-04-24T04:22:07;1.73;;;1.53;;
19456;SDS011;9867;48.094;11.478;2023-04-24T04:24:41;1.70;;;1.60;;
19456;SDS011;9867;48.094;11.478;2023-04-24T04:27:10;1.57;;;1.47;;
19456;SDS011;9867;48.094;11.478;2023-04-24T04:29:51;1.30;;;1.20;;
19456;SDS011;9867;48.094;11.478;2023-04-24T04:32:20;1.57;;;1.50;;
19456;SDS011;9867;48.094;11.478;2023-04-24T04:34:48;1.10;;;1.10;;
19456;SDS011;9867;48.094;11.478;2023-04-24T04:37:20;1.20;;;1.10;;
19456;SDS011;9867;48.094;11.478;2023-04-24T04:39:53;1.57;;;1.47;;
19456;SDS011;9867;48.094;11.478;2023-04-24T04:42:24;1.00;;;1.00;;
19456;SDS011;9867;48.094;11.478;2023-04-24T04:44:53;1.30;;;1.20;;
19456;SDS011;9867;48.094;11.478;2023-04-24T04:47:28;1.00;;;1.00;;
19456;SDS011;9867;48.094;11.478;2023-04-24T04:49:58;2.23;;;2.10;;
19456;SDS011;9867;48.094;11.478;2023-04-24T04:52:27;2.10;;;1.90;;
19456;SDS011;9867;48.094;11.478;2023-04-24T04:55:06;2.50;;;2.30;;
19456;SDS011;9867;48.094;11.478;2023-04-24T04:57:54;1.97;;;1.87;;
19456;SDS011;9867;48.094;11.478;2023-04-24T05:00:23;2.33;;;2.13;;
19456;SDS011;9867;48.094;11.478;2023-04-24T05:02:52;1.53;;;1.10;;
19456;SDS011;9867;48.094;11.478;2023-04-24T05:05:26;1.90;;;1.77;;
19456;SDS011;9867;48.094;11.478;2023-04-24T05:07:54;1.30;;;0.90;;
19456;SDS011;9867;48.094;11.478;2023-04-24T05:10:23;1.07;;;1.07;;
19456;SDS011;9867;48.094;11.478;2023-04-24T05:12:53;1.17;;;1.00;;
19456;SDS011;9867;48.094;11.478;2023-04-24T05:15:21;1.53;;;1.43;;
19456;SDS011;9867;48.094;11.478;2023-04-24T05:17:49;0.90;;;0.90;;
19456;SDS011;9867;48.094;11.478;2023-04-24T05:20:17;0.80;;;0.80;;
19456;SDS011;9867;48.094;11.478;2023-04-24T05:22:45;1.87;;;0.90;;
19456;SDS011;9867;48.094;11.478;2023-04-24T05:25:14;1.10;;;1.00;;
19456;SDS011;9867;48.094;11.478;2023-04-24T05:27:51;1.10;;;1.10;;
19456;SDS011;9867;48.094;11.478;2023-04-24T05:30:21;1.00;;;1.00;;
19456;SDS011;9867;48.094;11.478;2023-04-24T05:32:49;1.30;;;1.00;;
19456;SDS011;9867;48.094;11.478;2023-04-24T05:35:17;0.83;;;0.83;;
19456;SDS011;9867;48.094;11.478;2023-04-24T05:37:46;2.73;;;2.43;;
19456;SDS011;9867;48.094;11.478;2023-04-24T05:40:14;1.70;;;1.60;;
19456;SDS011;9867;48.094;11.478;2023-04-24T05:42:43;1.10;;;1.10;;
19456;SDS011;9867;48.094;11.478;2023-04-24T05:45:12;1.60;;;1.50;;
19456;SDS011;9867;48.094;11.478;2023-04-24T05:47:43;1.60;;;0.97;;
19456;SDS011;9867;48.094;11.478;2023-04-24T05:50:11;1.20;;;1.07;;
19456;SDS011;9867;48.094;11.478;2023-04-24T05:52:40;0.90;;;0.80;;
19456;SDS011;9867;48.094;11.478;2023-04-24T05:55:20;1.23;;;1.00;;
19456;SDS011;9867;48.094;11.478;2023-04-24T05:57:48;0.93;;;0.80;;
19456;SDS011;9867;48.094;11.478;2023-04-24T06:00:18;1.00;;;1.00;;
19456;SDS011;9867;48.094;11.478;2023-04-24T06:02:55;0.70;;;0.70;;
19456;SDS011;9867;48.094;11.478;2023-04-24T06:05:24;0.90;;;0.90;;
19456;SDS011;9867;48.094;11.478;2023-04-24T06:07:52;0.70;;;0.70;;
19456;SDS011;9867;48.094;11.478;2023-04-24T06:10:30;1.27;;;0.90;;
19456;SDS011;9867;48.094;11.478;2023-04-24T06:13:20;0.80;;;0.80;;
19456;SDS011;9867;48.094;11.478;2023-04-24T06:16:15;0.73;;;0.70;;
19456;SDS011;9867;48.094;11.478;2023-04-24T06:18:49;0.70;;;0.70;;
19456;SDS011;9867;48.094;11.478;2023-04-24T06:21:18;0.80;;;0.80;;
19456;SDS011;9867;48.094;11.478;2023-04-24T06:23:46;1.13;;;0.80;;
19456;SDS011;9867;48.094;11.478;2023-04-24T06:26:15;1.60;;;0.97;;
19456;SDS011;9867;48.094;11.478;2023-04-24T06:28:43;1.30;;;0.80;;
19456;SDS011;9867;48.094;11.478;2023-04-24T06:31:11;1.03;;;0.83;;
19456;SDS011;9867;48.094;11.478;2023-04-24T06:33:40;0.67;;;0.67;;
19456;SDS011;9867;48.094;11.478;2023-04-24T06:36:08;0.60;;;0.60;;
19456;SDS011;9867;48.094;11.478;2023-04-24T06:38:37;0.70;;;0.70;;
19456;SDS011;9867;48.094;11.478;2023-04-24T06:41:05;0.70;;;0.70;;
19456;SDS011;9867;48.094;11.478;2023-04-24T06:43:36;0.70;;;0.70;;
19456;SDS011;9867;48.094;11.478;2023-04-24T06:46:04;0.73;;;0.73;;
19456;SDS011;9867;48.094;11.478;2023-04-24T06:48:32;0.60;;;0.60;;
19456;SDS011;9867;48.094;11.478;2023-04-24T06:51:01;0.70;;;0.70;;
19456;SDS011;9867;48.094;11.478;2023-04-24T06:53:29;1.07;;;0.73;;
19456;SDS011;9867;48.094;11.478;2023-04-24T06:55:57;0.60;;;0.60;;
19456;SDS011;9867;48.094;11.478;2023-04-24T06:58:25;0.80;;;0.73;;
19456;SDS011;9867;48.094;11.478;2023-04-24T07:00:53;0.90;;;0.90;;
19456;SDS011;9867;48.094;11.478;2023-04-24T07:03:21;0.80;;;0.80;;
19456;SDS011;9867;48.094;11.478;2023-04-24T07:05:49;0.60;;;0.60;;
19456;SDS011;9867;48.094;11.478;2023-04-24T07:08:18;0.60;;;0.60;;
19456;SDS011;9867;48.094;11.478;2023-04-24T07:10:48;1.93;;;0.87;;
19456;SDS011;9867;48.094;11.478;2023-04-24T07:13:17;0.70;;;0.70;;
19456;SDS011;9867;48.094;11.478;2023-04-24T07:15:45;0.70;;;0.70;;
19456;SDS011;9867;48.094;11.478;2023-04-24T07:18:15;0.80;;;0.80;;
19456;SDS011;9867;48.094;11.478;2023-04-24T07:20:43;0.70;;;0.70;;
19456;SDS011;9867;48.094;11.478;2023-04-24T07:23:11;0.50;;;0.50;;
19456;SDS011;9867;48.094;11.478;2023-04-24T07:25:40;2.17;;;0.90;;
19456;SDS011;9867;48.094;11.478;2023-04-24T07:28:08;1.13;;;0.70;;
19456;SDS011;9867;48.094;11.478;2023-04-24T07:30:36;1.97;;;1.37;;
19456;SDS011;9867;48.094;11.478;2023-04-24T07:33:03;0.77;;;0.77;;
19456;SDS011;9867;48.094;11.478;2023-04-24T07:35:33;0.60;;;0.60;;
19456;SDS011;9867;48.094;11.478;2023-04-24T07:38:01;0.60;;;0.60;;
19456;SDS011;9867;48.094;11.478;2023-04-24T07:40:29;0.60;;;0.60;;
19456;SDS011;9867;48.094;11.478;2023-04-24T07:42:58;0.80;;;0.80;;
19456;SDS011;9867;48.094;11.478;2023-04-24T07:45:26;0.60;;;0.60;;
19456;SDS011;9867;48.094;11.478;2023-04-24T07:47:54;0.80;;;0.80;;
19456;SDS011;9867;48.094;11.478;2023-04-24T07:50:22;0.53;;;0.53;;
19456;SDS011;9867;48.094;11.478;2023-04-24T07:52:50;0.60;;;0.60;;
19456;SDS011;9867;48.094;11.478;2023-04-24T07:55:18;3.03;;;1.00;;
19456;SDS011;9867;48.094;11.478;2023-04-24T07:57:50;0.63;;;0.63;;
19456;SDS011;9867;48.094;11.478;2023-04-24T08:00:20;0.60;;;0.60;;
19456;SDS011;9867;48.094;11.478;2023-04-24T08:02:48;1.37;;;0.87;;
19456;SDS011;9867;48.094;11.478;2023-04-24T08:05:16;1.00;;;0.70;;
19456;SDS011;9867;48.094;11.478;2023-04-24T08:07:45;0.60;;;0.60;;
19456;SDS011;9867;48.094;11.478;2023-04-24T08:10:14;0.80;;;0.80;;
19456;SDS011;9867;48.094;11.478;2023-04-24T08:12:42;1.33;;;1.23;;
19456;SDS011;9867;48.094;11.478;2023-04-24T08:15:10;0.80;;;0.80;;
19456;SDS011;9867;48.094;11.478;2023-04-24T08:17:39;0.60;;;0.60;;
19456;SDS011;9867;48.094;11.478;2023-04-24T08:20:08;1.00;;;1.00;;
19456;SDS011;9867;48.094;11.478;2023-04-24T08:22:40;0.70;;;0.70;;
19456;SDS011;9867;48.094;11.478;2023-04-24T08:25:08;2.03;;;0.80;;
19456;SDS011;9867;48.094;11.478;2023-04-24T08:27:37;0.80;;;0.80;;
19456;SDS011;9867;48.094;11.478;2023-04-24T08:30:05;2.37;;;2.27;;
19456;SDS011;9867;48.094;11.478;2023-04-24T08:32:34;2.37;;;2.17;;
19456;SDS011;9867;48.094;11.478;2023-04-24T08:35:03;1.10;;;1.00;;
19456;SDS011;9867;48.094;11.478;2023-04-24T08:37:32;1.37;;;1.20;;
19456;SDS011;9867;48.094;11.478;2023-04-24T08:40:00;1.87;;;1.30;;
19456;SDS011;9867;48.094;11.478;2023-04-24T08:42:28;0.90;;;0.90;;
19456;SDS011;9867;48.094;11.478;2023-04-24T08:44:59;1.23;;;1.23;;
19456;SDS011;9867;48.094;11.478;2023-04-24T08:47:28;1.20;;;1.20;;
19456;SDS011;9867;48.094;11.478;2023-04-24T08:49:57;1.30;;;1.30;;
19456;SDS011;9867;48.094;11.478;2023-04-24T08:52:30;1.70;;;1.30;;
19456;SDS011;9867;48.094;11.478;2023-04-24T08:54:59;1.10;;;1.10;;
19456;SDS011;9867;48.094;11.478;2023-04-24T08:57:27;1.23;;;1.13;;
19456;SDS011;9867;48.094;11.478;2023-04-24T08:59:56;1.40;;;1.17;;
19456;SDS011;9867;48.094;11.478;2023-04-24T09:02:25;1.10;;;1.10;;
19456;SDS011;9867;48.094;11.478;2023-04-24T09:04:53;1.10;;;1.10;;
19456;SDS011;9867;48.094;11.478;2023-04-24T09:07:24;2.50;;;1.20;;
19456;SDS011;9867;48.094;11.478;2023-04-24T09:09:54;1.40;;;1.30;;
19456;SDS011;9867;48.094;11.478;2023-04-24T09:12:22;3.63;;;1.70;;
19456;SDS011;9867;48.094;11.478;2023-04-24T09:14:50;1.53;;;1.43;;
19456;SDS011;9867;48.094;11.478;2023-04-24T09:17:19;1.90;;;1.80;;
19456;SDS011;9867;48.094;11.478;2023-04-24T09:22:17;1.50;;;1.37;;
19456;SDS011;9867;48.094;11.478;2023-04-24T09:24:45;1.60;;;1.23;;
19456;SDS011;9867;48.094;11.478;2023-04-24T09:27:14;1.50;;;1.40;;
19456;SDS011;9867;48.094;11.478;2023-04-24T09:29:53;1.20;;;1.20;;
19456;SDS011;9867;48.094;11.478;2023-04-24T09:32:22;1.57;;;1.43;;
19456;SDS011;9867;48.094;11.478;2023-04-24T09:35:04;1.20;;;1.10;;
19456;SDS011;9867;48.094;11.478;2023-04-24T09:37:37;1.50;;;1.40;;
19456;SDS011;9867;48.094;11.478;2023-04-24T09:40:10;2.67;;;1.43;;
19456;SDS011;9867;48.094;11.478;2023-04-24T09:42:41;1.83;;;1.30;;
19456;SDS011;9867;48.094;11.478;2023-04-24T09:45:11;2.50;;;1.23;;
19456;SDS011;9867;48.094;11.478;2023-04-24T09:47:41;1.23;;;1.13;;
19456;SDS011;9867;48.094;11.478;2023-04-24T09:50:10;1.67;;;1.17;;
19456;SDS011;9867;48.094;11.478;2023-04-24T09:52:44;1.10;;;1.10;;
19456;SDS011;9867;48.094;11.478;2023-04-24T09:55:15;1.30;;;1.20;;
19456;SDS011;9867;48.094;11.478;2023-04-24T09:57:54;1.33;;;1.20;;
19456;SDS011;9867;48.094;11.478;2023-04-24T10:00:23;1.47;;;1.37;;
19456;SDS011;9867;48.094;11.478;2023-04-24T10:02:56;1.40;;;1.30;;
19456;SDS011;9867;48.094;11.478;2023-04-24T10:05:29;2.80;;;2.50;;
19456;SDS011;9867;48.094;11.478;2023-04-24T10:08:02;1.27;;;1.23;;
19456;SDS011;9867;48.094;11.478;2023-04-24T10:10:31;1.67;;;1.57;;
19456;SDS011;9867;48.094;11.478;2023-04-24T10:13:01;2.00;;;1.50;;
19456;SDS011;9867;48.094;11.478;2023-04-24T10:15:29;1.57;;;1.47;;
19456;SDS011;9867;48.094;11.478;2023-04-24T10:17:58;1.37;;;1.27;;
19456;SDS011;9867;48.094;11.478;2023-04-24T10:20:27;2.07;;;1.10;;
19456;SDS011;9867;48.094;11.478;2023-04-24T10:22:57;1.97;;;1.60;;
19456;SDS011;9867;48.094;11.478;2023-04-24T10:25:26;1.60;;;1.50;;
19456;SDS011;9867;48.094;11.478;2023-04-24T10:27:55;2.20;;;2.00;;
19456;SDS011;9867;48.094;11.478;2023-04-24T10:30:28;2.17;;;1.80;;
19456;SDS011;9867;48.094;11.478;2023-04-24T10:32:56;1.83;;;1.73;;
19456;SDS011;9867;48.094;11.478;2023-04-24T10:35:24;3.10;;;2.00;;
19456;SDS011;9867;48.094;11.478;2023-04-24T10:37:54;1.47;;;1.37;;
19456;SDS011;9867;48.094;11.478;2023-04-24T10:40:26;1.40;;;1.30;;
19456;SDS011;9867;48.094;11.478;2023-04-24T10:42:55;1.47;;;1.37;;
19456;SDS011;9867;48.094;11.478;2023-04-24T10:45:24;1.53;;;1.47;;
19456;SDS011;9867;48.094;11.478;2023-04-24T10:48:03;1.23;;;1.10;;
19456;SDS011;9867;48.094;11.478;2023-04-24T10:50:43;1.27;;;1.00;;
19456;SDS011;9867;48.094;11.478;2023-04-24T10:53:12;1.20;;;1.17;;
19456;SDS011;9867;48.094;11.478;2023-04-24T10:55:43;1.40;;;1.30;;
19456;SDS011;9867;48.094;11.478;2023-04-24T10:58:12;2.03;;;1.20;;
19456;SDS011;9867;48.094;11.478;2023-04-24T11:00:47;1.30;;;1.20;;
19456;SDS011;9867;48.094;11.478;2023-04-24T11:03:27;1.60;;;1.50;;
19456;SDS011;9867;48.094;11.478;2023-04-24T11:05:56;1.60;;;1.50;;
19456;SDS011;9867;48.094;11.478;2023-04-24T11:08:30;1.30;;;1.20;;
19456;SDS011;9867;48.094;11.478;2023-04-24T11:11:01;0.90;;;0.90;;
19456;SDS011;9867;48.094;11.478;2023-04-24T11:16:32;1.60;;;1.43;;
19456;SDS011;9867;48.094;11.478;2023-04-24T11:19:05;1.70;;;1.60;;
19456;SDS011;9867;48.094;11.478;2023-04-24T11:21:39;2.63;;;1.50;;
19456;SDS011;9867;48.094;11.478;2023-04-24T11:24:25;1.30;;;1.30;;
19456;SDS011;9867;48.094;11.478;2023-04-24T11:26:55;1.67;;;1.30;;
19456;SDS011;9867;48.094;11.478;2023-04-24T11:29:37;1.47;;;1.40;;
19456;SDS011;9867;48.094;11.478;2023-04-24T11:35:03;2.60;;;1.37;;
19456;SDS011;9867;48.094;11.478;2023-04-24T11:37:33;2.20;;;1.50;;
19456;SDS011;9867;48.094;11.478;2023-04-24T11:40:04;1.43;;;1.37;;
19456;SDS011;9867;48.094;11.478;2023-04-24T11:42:33;1.40;;;1.30;;
19456;SDS011;9867;48.094;11.478;2023-04-24T11:45:06;1.53;;;1.43;;
19456;SDS011;9867;48.094;11.478;2023-04-24T11:47:35;1.40;;;1.30;;
19456;SDS011;9867;48.094;11.478;2023-04-24T11:50:06;1.27;;;1.20;;
19456;SDS011;9867;48.094;11.478;2023-04-24T11:52:36;1.40;;;1.30;;
19456;SDS011;9867;48.094;11.478;2023-04-24T11:55:06;3.00;;;1.60;;
19456;SDS011;9867;48.094;11.478;2023-04-24T11:57:35;1.20;;;1.10;;
19456;SDS011;9867;48.094;11.478;2023-04-24T12:00:04;1.50;;;1.47;;
19456;SDS011;9867;48.094;11.478;2023-04-24T12:02:37;3.27;;;1.60;;
19456;SDS011;9867;48.094;11.478;2023-04-24T12:05:08;1.43;;;1.33;;
19456;SDS011;9867;48.094;11.478;2023-04-24T12:07:40;1.80;;;1.70;;
19456;SDS011;9867;48.094;11.478;2023-04-24T12:10:10;1.67;;;1.57;;
19456;SDS011;9867;48.094;11.478;2023-04-24T12:12:38;1.50;;;1.40;;
19456;SDS011;9867;48.094;11.478;2023-04-24T12:15:06;1.33;;;1.13;;
19456;SDS011;9867;48.094;11.478;2023-04-24T12:17:35;2.27;;;2.17;;
19456;SDS011;9867;48.094;11.478;2023-04-24T12:20:04;1.50;;;1.40;;
19456;SDS011;9867;48.094;11.478;2023-04-24T12:22:44;3.17;;;1.57;;
19456;SDS011;9867;48.094;11.478;2023-04-24T12:25:13;1.43;;;1.33;;
19456;SDS011;9867;48.094;11.478;2023-04-24T12:27:42;2.00;;;1.40;;
19456;SDS011;9867;48.094;11.478;2023-04-24T12:30:11;1.47;;;1.20;;
19456;SDS011;9867;48.094;11.478;2023-04-24T12:32:41;1.70;;;1.60;;
19456;SDS011;9867;48.094;11.478;2023-04-24T12:35:10;1.40;;;1.30;;
19456;SDS011;9867;48.094;11.478;2023-04-24T12:37:41;2.60;;;2.40;;
19456;SDS011;9867;48.094;11.478;2023-04-24T12:40:14;1.50;;;1.40;;
19456;SDS011;9867;48.094;11.478;2023-04-24T12:42:43;2.07;;;1.37;;
19456;SDS011;9867;48.094;11.478;2023-04-24T12:45:12;1.47;;;1.37;;
19456;SDS011;9867;48.094;11.478;2023-04-24T12:47:41;2.43;;;1.60;;
19456;SDS011;9867;48.094;11.478;2023-04-24T12:50:10;2.07;;;1.50;;
19456;SDS011;9867;48.094;11.478;2023-04-24T12:52:40;1.90;;;1.60;;
19456;SDS011;9867;48.094;11.478;2023-04-24T12:55:08;2.83;;;1.57;;
19456;SDS011;9867;48.094;11.478;2023-04-24T12:57:39;1.50;;;1.33;;
19456;SDS011;9867;48.094;11.478;2023-04-24T13:00:08;1.97;;;1.77;;
19456;SDS011;9867;48.094;11.478;2023-04-24T13:02:36;1.90;;;1.70;;
19456;SDS011;9867;48.094;11.478;2023-04-24T13:05:05;1.50;;;1.40;;
19456;SDS011;9867;48.094;11.478;2023-04-24T13:07:37;2.17;;;1.67;;
19456;SDS011;9867;48.094;11.478;2023-04-24T13:10:06;1.63;;;1.30;;
19456;SDS011;9867;48.094;11.478;2023-04-24T13:12:35;4.43;;;2.00;;
19456;SDS011;9867;48.094;11.478;2023-04-24T13:15:05;1.90;;;1.60;;
19456;SDS011;9867;48.094;11.478;2023-04-24T13:17:34;1.70;;;1.60;;
19456;SDS011;9867;48.094;11.478;2023-04-24T13:20:02;1.93;;;1.73;;
19456;SDS011;9867;48.094;11.478;2023-04-24T13:22:30;1.57;;;1.40;;
19456;SDS011;9867;48.094;11.478;2023-04-24T13:24:58;1.47;;;1.37;;
19456;SDS011;9867;48.094;11.478;2023-04-24T13:27:27;2.00;;;1.80;;
19456;SDS011;9867;48.094;11.478;2023-04-24T13:29:55;1.60;;;1.50;;
19456;SDS011;9867;48.094;11.478;2023-04-24T13:32:24;2.30;;;1.97;;
19456;SDS011;9867;48.094;11.478;2023-04-24T13:34:53;4.10;;;2.10;;
19456;SDS011;9867;48.094;11.478;2023-04-24T13:37:20;1.20;;;1.10;;
19456;SDS011;9867;48.094;11.478;2023-04-24T13:39:49;1.90;;;1.80;;
19456;SDS011;9867;48.094;11.478;2023-04-24T13:42:17;3.97;;;2.90;;
19456;SDS011;9867;48.094;11.478;2023-04-24T13:44:46;3.43;;;2.00;;
19456;SDS011;9867;48.094;11.478;2023-04-24T13:47:14;2.80;;;1.73;;
19456;SDS011;9867;48.094;11.478;2023-04-24T13:49:43;3.73;;;1.90;;
19456;SDS011;9867;48.094;11.478;2023-04-24T13:52:11;2.33;;;1.70;;
19456;SDS011;9867;48.094;11.478;2023-04-24T13:54:40;1.60;;;1.50;;
19456;SDS011;9867;48.094;11.478;2023-04-24T13:57:08;1.90;;;1.57;;
19456;SDS011;9867;48.094;11.478;2023-04-24T13:59:36;3.47;;;1.67;;
19456;SDS011;9867;48.094;11.478;2023-04-24T14:02:03;2.70;;;1.73;;
19456;SDS011;9867;48.094;11.478;2023-04-24T14:04:31;4.03;;;1.63;;
19456;SDS011;9867;48.094;11.478;2023-04-24T14:07:01;3.00;;;1.80;;
19456;SDS011;9867;48.094;11.478;2023-04-24T14:09:29;1.67;;;1.50;;
19456;SDS011;9867;48.094;11.478;2023-04-24T14:11:57;4.07;;;1.43;;
19456;SDS011;9867;48.094;11.478;2023-04-24T14:14:24;1.63;;;1.37;;
19456;SDS011;9867;48.094;11.478;2023-04-24T14:16:52;2.77;;;1.50;;
19456;SDS011;9867;48.094;11.478;2023-04-24T14:19:20;1.77;;;1.67;;
19456;SDS011;9867;48.094;11.478;2023-04-24T14:21:48;1.53;;;1.43;;
19456;SDS011;9867;48.094;11.478;2023-04-24T14:24:18;1.70;;;1.60;;
19456;SDS011;9867;48.094;11.478;2023-04-24T14:26:46;1.60;;;1.50;;
19456;SDS011;9867;48.094;11.478;2023-04-24T14:29:14;1.57;;;1.47;;
19456;SDS011;9867;48.094;11.478;2023-04-24T14:31:42;1.70;;;1.60;;
19456;SDS011;9867;48.094;11.478;2023-04-24T14:34:11;3.67;;;1.80;;
19456;SDS011;9867;48.094;11.478;2023-04-24T14:36:39;3.77;;;1.40;;
19456;SDS011;9867;48.094;11.478;2023-04-24T14:39:06;1.37;;;1.27;;
19456;SDS011;9867;48.094;11.478;2023-04-24T14:41:35;1.67;;;1.57;;
19456;SDS011;9867;48.094;11.478;2023-04-24T14:44:05;1.80;;;1.70;;
19456;SDS011;9867;48.094;11.478;2023-04-24T14:46:33;3.33;;;1.70;;
19456;SDS011;9867;48.094;11.478;2023-04-24T14:49:01;2.90;;;1.80;;
19456;SDS011;9867;48.094;11.478;2023-04-24T14:51:29;3.00;;;1.77;;
19456;SDS011;9867;48.094;11.478;2023-04-24T14:53:58;3.03;;;1.63;;
19456;SDS011;9867;48.094;11.478;2023-04-24T14:56:26;1.43;;;1.33;;
19456;SDS011;9867;48.094;11.478;2023-04-24T14:58:57;2.30;;;1.73;;
19456;SDS011;9867;48.094;11.478;2023-04-24T15:01:25;2.03;;;1.60;;
19456;SDS011;9867;48.094;11.478;2023-04-24T15:03:53;1.70;;;1.50;;
19456;SDS011;9867;48.094;11.478;2023-04-24T15:06:21;3.30;;;1.50;;
19456;SDS011;9867;48.094;11.478;2023-04-24T15:08:49;1.70;;;1.60;;
19456;SDS011;9867;48.094;11.478;2023-04-24T15:11:17;1.47;;;1.37;;